Time;durP1;ratioP1;P1;durP2;ratioP2;P2;SDS_P1;SDS_P2;PMS_P1;PMS_P2;Temp;Humidity;BMP_temperature;BMP_pressure;BME280_temperature;BME280_humidity;BME280_pressure;Samples;Min_cycle;Max_cycle;Signal;HPM_P1;HPM_P2
2021/03/14 00:00:47;;;;;;;29.23;22.07;;;;;;;4.60;83.51;99222.19;1792529;80;21451;-67
2021/03/14 00:03:17;;;;;;;31.50;22.05;;;;;;;4.59;83.61;99233.05;1792547;80;21181;-68
2021/03/14 00:05:47;;;;;;;32.95;22.98;;;;;;;4.58;83.69;99226.09;1792484;80;21606;-68
2021/03/14 00:08:16;;;;;;;28.92;22.87;;;;;;;4.57;83.66;99221.28;1792341;80;21189;-67
2021/03/14 00:10:49;;;;;;;29.98;22.82;;;;;;;4.58;83.74;99217.59;1792820;80;21049;-66
2021/03/14 00:13:18;;;;;;;29.30;23.57;;;;;;;4.60;83.72;99216.05;1793811;80;21019;-67
2021/03/14 00:15:46;;;;;;;27.17;23.35;;;;;;;4.59;83.69;99214.41;1792607;80;21143;-66
2021/03/14 00:18:15;;;;;;;27.82;22.22;;;;;;;4.58;83.61;99221.59;1793872;78;22293;-62
2021/03/14 00:20:43;;;;;;;26.48;20.82;;;;;;;4.56;83.63;99212.17;1792484;80;21592;-63
2021/03/14 00:23:11;;;;;;;31.73;25.12;;;;;;;4.53;83.62;99207.30;1792587;80;21182;-64
2021/03/14 00:25:39;;;;;;;30.23;23.05;;;;;;;4.50;83.70;99208.58;1792454;80;21660;-62
2021/03/14 00:28:06;;;;;;;28.60;19.82;;;;;;;4.47;83.82;99210.33;1792493;80;21046;-62
2021/03/14 00:30:33;;;;;;;24.87;21.12;;;;;;;4.49;83.96;99200.30;1824348;78;21666;-62
2021/03/14 00:33:01;;;;;;;30.20;20.23;;;;;;;4.51;83.93;99202.20;1757847;81;21146;-63
2021/03/14 00:35:31;;;;;;;24.12;17.48;;;;;;;4.51;83.85;99198.75;1760430;81;21561;-65
2021/03/14 00:37:58;;;;;;;22.00;15.98;;;;;;;4.53;83.75;99204.64;1766888;81;21175;-67
2021/03/14 00:40:26;;;;;;;25.25;17.30;;;;;;;4.50;83.71;99196.59;1756283;80;21122;-68
2021/03/14 00:42:58;;;;;;;21.15;16.87;;;;;;;4.45;83.70;99204.44;1755571;81;21372;-66
2021/03/14 00:45:30;;;;;;;22.27;15.98;;;;;;;4.42;83.82;99206.70;1755456;81;26778;-66
2021/03/14 00:50:41;;;;;;;18.83;15.40;;;;;;;4.47;84.02;99202.86;1854757;76;22720;-66
2021/03/14 00:53:10;;;;;;;21.68;15.78;;;;;;;4.40;83.99;99205.62;1827342;78;20993;-68
2021/03/14 00:55:40;;;;;;;22.75;15.85;;;;;;;4.32;84.04;99207.22;1827147;78;21184;-68
2021/03/14 00:58:07;;;;;;;17.95;14.55;;;;;;;4.23;84.25;99205.89;1826278;78;20978;-65
2021/03/14 01:00:34;;;;;;;20.70;15.88;;;;;;;4.24;84.45;99208.85;1826939;77;21562;-65
2021/03/14 01:03:02;;;;;;;19.75;13.90;;;;;;;4.24;84.53;99200.87;1826394;78;20980;-67
2021/03/14 01:05:31;;;;;;;17.75;12.93;;;;;;;4.21;84.63;99209.30;1834401;77;21011;-63
2021/03/14 01:07:59;;;;;;;19.62;14.50;;;;;;;4.11;85.01;99199.68;1860117;77;21125;-66
2021/03/14 01:10:27;;;;;;;18.30;13.45;;;;;;;4.01;85.29;99196.19;1830433;77;21057;-66
2021/03/14 01:12:55;;;;;;;16.97;13.48;;;;;;;3.90;85.86;99189.73;1826374;78;21002;-68
2021/03/14 01:15:24;;;;;;;18.40;14.18;;;;;;;3.86;85.93;99189.88;1826372;78;21049;-64
2021/03/14 01:17:53;;;;;;;19.37;14.65;;;;;;;3.84;86.17;99184.47;1826603;77;21562;-65
2021/03/14 01:20:23;;;;;;;20.02;15.08;;;;;;;3.81;86.28;99188.39;1855740;77;21374;-65
2021/03/14 01:22:51;;;;;;;22.55;14.80;;;;;;;3.77;86.56;99191.70;1863317;77;21023;-66
2021/03/14 01:25:21;;;;;;;16.48;12.50;;;;;;;3.71;86.98;99192.57;1863360;77;21050;-69
2021/03/14 01:27:51;;;;;;;18.52;13.95;;;;;;;3.67;87.07;99188.73;1863099;77;22240;-67
2021/03/14 01:30:19;;;;;;;21.33;14.50;;;;;;;3.64;87.26;99192.64;1859708;77;21646;-65
2021/03/14 01:32:47;;;;;;;16.62;14.10;;;;;;;3.64;87.38;99191.31;1860144;77;21188;-66
2021/03/14 01:35:17;;;;;;;19.23;14.28;;;;;;;3.66;87.43;99198.55;1838662;77;21101;-68
2021/03/14 01:37:45;;;;;;;16.65;13.68;;;;;;;3.72;87.43;99195.53;1829150;77;21621;-64
2021/03/14 01:40:16;;;;;;;16.37;12.88;;;;;;;3.77;87.28;99196.52;1830621;77;20979;-68
2021/03/14 01:42:43;;;;;;;18.87;14.63;;;;;;;3.79;87.09;99185.67;1816780;77;21054;-64
2021/03/14 01:45:13;;;;;;;16.00;13.58;;;;;;;3.78;86.93;99192.83;1814582;77;21377;-73
2021/03/14 01:47:44;;;;;;;19.60;14.18;;;;;;;3.80;86.95;99197.91;1856881;77;21198;-68
2021/03/14 01:50:15;;;;;;;18.27;13.72;;;;;;;3.84;87.07;99193.27;1848604;77;21177;-70
2021/03/14 01:52:44;;;;;;;17.48;14.47;;;;;;;3.90;87.04;99189.73;1846343;77;21142;-69
2021/03/14 01:55:14;;;;;;;18.90;13.28;;;;;;;3.94;86.93;99182.12;1846456;77;21162;-68
2021/03/14 01:57:44;;;;;;;15.90;12.05;;;;;;;3.97;86.75;99174.23;1839856;77;21364;-67
2021/03/14 02:00:14;;;;;;;15.95;12.70;;;;;;;3.94;86.55;99180.28;1835015;77;21160;-68
2021/03/14 02:02:43;;;;;;;19.27;13.32;;;;;;;3.88;86.39;99183.84;1829209;78;21164;-67
2021/03/14 02:05:13;;;;;;;19.10;12.53;;;;;;;3.84;86.49;99184.47;1829271;78;21655;-67
2021/03/14 02:07:43;;;;;;;19.60;14.03;;;;;;;3.82;86.58;99185.22;1829282;78;21132;-68
2021/03/14 02:10:13;;;;;;;19.00;14.38;;;;;;;3.84;86.77;99188.45;1836280;77;22280;-68
2021/03/14 02:12:48;;;;;;;17.40;13.43;;;;;;;3.86;86.73;99185.89;1801430;78;21591;-67
2021/03/14 02:15:16;;;;;;;20.85;13.83;;;;;;;3.84;86.60;99184.47;1829337;78;21066;-67
2021/03/14 02:17:44;;;;;;;16.48;12.45;;;;;;;3.74;86.55;99182.30;1786441;80;21566;-65
2021/03/14 02:20:16;;;;;;;15.40;12.18;;;;;;;3.61;87.16;99189.07;1753650;80;21210;-66
2021/03/14 02:22:45;;;;;;;18.70;13.45;;;;;;;3.50;87.46;99192.45;1779648;80;21199;-66
2021/03/14 02:25:20;;;;;;;19.55;13.60;;;;;;;3.41;87.99;99199.04;1779635;80;21056;-66
2021/03/14 02:27:47;;;;;;;20.17;15.50;;;;;;;3.34;88.55;99195.11;1791582;80;21152;-66
2021/03/14 02:30:17;;;;;;;22.35;16.75;;;;;;;3.31;88.66;99199.52;1762181;80;21177;-66
2021/03/14 02:32:44;;;;;;;19.62;14.45;;;;;;;3.29;88.92;99196.27;1742988;82;21585;-66
2021/03/14 02:35:12;;;;;;;17.67;13.58;;;;;;;3.27;89.04;99204.97;1730083;82;21209;-66
2021/03/14 02:37:42;;;;;;;20.77;15.48;;;;;;;3.24;89.16;99195.28;1742965;82;21624;-66
2021/03/14 02:40:12;;;;;;;21.70;13.40;;;;;;;3.19;89.81;99201.75;1743476;80;21156;-66
2021/03/14 02:42:41;;;;;;;18.48;15.43;;;;;;;3.18;89.80;99202.77;1743742;80;21570;-66
2021/03/14 02:45:10;;;;;;;25.05;16.32;;;;;;;3.15;90.04;99202.70;1742332;80;21611;-65
2021/03/14 02:47:38;;;;;;;21.68;16.20;;;;;;;3.13;90.18;99197.29;1744311;80;21347;-67
2021/03/14 02:50:15;;;;;;;15.23;13.18;;;;;;;3.13;90.42;99190.14;1800290;79;21524;-66
2021/03/14 02:52:44;;;;;;;22.55;16.30;;;;;;;3.12;90.52;99200.45;1789051;80;21023;-66
2021/03/14 02:55:12;;;;;;;21.80;15.15;;;;;;;3.09;90.72;99199.56;1738776;79;21031;-67
2021/03/14 02:57:40;;;;;;;17.70;14.13;;;;;;;3.05;91.04;99191.22;1789044;79;21114;-67
2021/03/14 03:00:12;;;;;;;19.52;14.83;;;;;;;3.06;91.23;99189.38;1787631;79;22281;-66
2021/03/14 03:02:39;;;;;;;22.65;15.23;;;;;;;3.02;91.49;99192.95;1821655;78;21101;-65
2021/03/14 03:05:09;;;;;;;22.58;15.43;;;;;;;3.00;91.58;99201.66;1821590;78;21096;-67
2021/03/14 03:07:38;;;;;;;21.37;16.32;;;;;;;3.02;91.81;99204.12;1787772;80;21626;-69
2021/03/14 03:10:07;;;;;;;23.57;15.58;;;;;;;2.97;91.92;99197.30;1770291;80;21168;-65
2021/03/14 03:12:34;;;;;;;19.45;13.68;;;;;;;2.91;92.13;99192.32;1758873;80;21386;-66
2021/03/14 03:15:03;;;;;;;18.92;14.58;;;;;;;2.89;92.39;99204.98;1758049;80;21054;-66
2021/03/14 03:17:32;;;;;;;21.27;16.95;;;;;;;2.83;92.88;99198.40;1789459;78;21572;-68
2021/03/14 03:20:01;;;;;;;26.02;18.92;;;;;;;2.81;93.23;99203.91;1773436;79;21153;-66
2021/03/14 03:22:30;;;;;;;20.55;14.28;;;;;;;2.86;93.17;99200.11;1777686;80;21142;-66
2021/03/14 03:24:57;;;;;;;24.85;18.75;;;;;;;2.90;93.16;99195.99;1789461;80;21344;-65
2021/03/14 03:27:25;;;;;;;26.00;19.77;;;;;;;2.92;93.04;99207.75;1789246;80;21022;-66
2021/03/14 03:29:53;;;;;;;27.22;19.05;;;;;;;2.91;93.05;99206.11;1805831;78;20979;-66
2021/03/14 03:32:20;;;;;;;28.27;20.85;;;;;;;2.88;93.20;99215.30;1791643;78;21125;-66
2021/03/14 03:34:48;;;;;;;28.50;21.75;;;;;;;2.88;93.35;99207.33;1789455;80;21141;-66
2021/03/14 03:37:16;;;;;;;27.35;20.40;;;;;;;2.87;93.49;99219.52;1789293;80;21380;-66
2021/03/14 03:39:44;;;;;;;33.28;23.32;;;;;;;2.90;93.56;99212.44;1756789;80;21133;-67
2021/03/14 03:42:16;;;;;;;33.78;21.42;;;;;;;2.91;93.62;99203.45;1762308;80;21152;-65
2021/03/14 03:44:46;;;;;;;31.35;22.45;;;;;;;2.93;93.63;99198.22;1762177;80;21140;-66
2021/03/14 03:47:15;;;;;;;34.27;23.55;;;;;;;3.00;93.67;99199.01;1762024;81;21032;-67
2021/03/14 03:49:46;;;;;;;29.72;23.15;;;;;;;2.98;93.66;99202.89;1747399;80;21384;-67
2021/03/14 03:52:18;;;;;;;33.80;22.07;;;;;;;2.96;93.61;99193.01;1747466;82;21035;-66
2021/03/14 03:54:47;;;;;;;31.82;23.00;;;;;;;2.92;93.85;99194.47;1747562;82;21171;-67
2021/03/14 03:57:18;;;;;;;34.85;21.27;;;;;;;2.88;93.96;99195.89;1768613;80;21118;-66
2021/03/14 03:59:47;;;;;;;24.98;18.57;;;;;;;2.87;94.22;99201.74;1791519;80;21158;-68
2021/03/14 04:02:14;;;;;;;32.17;23.52;;;;;;;2.91;94.36;99184.86;1758476;81;22350;-66
2021/03/14 04:04:43;;;;;;;29.48;20.88;;;;;;;2.94;94.23;99184.42;1747147;81;21236;-67
2021/03/14 04:07:11;;;;;;;31.77;22.65;;;;;;;2.89;94.39;99185.06;1746970;82;21158;-68
2021/03/14 04:09:39;;;;;;;33.90;22.00;;;;;;;2.87;94.35;99184.99;1761674;80;21590;-68
2021/03/14 04:12:08;;;;;;;28.23;20.60;;;;;;;2.80;94.69;99180.22;1742542;82;21141;-67
2021/03/14 04:14:36;;;;;;;28.65;20.95;;;;;;;2.80;94.77;99170.92;1742563;82;21385;-66
2021/03/14 04:17:04;;;;;;;34.98;21.90;;;;;;;2.79;95.03;99177.25;1742616;82;21175;-67
2021/03/14 04:19:33;;;;;;;32.93;22.95;;;;;;;2.74;95.13;99175.73;1767088;80;21215;-67
2021/03/14 04:22:02;;;;;;;30.35;22.10;;;;;;;2.73;95.18;99170.16;1790284;80;21037;-65
2021/03/14 04:24:30;;;;;;;30.57;20.23;;;;;;;2.72;95.24;99178.63;1793113;80;21824;-66
2021/03/14 04:27:01;;;;;;;23.57;17.62;;;;;;;2.78;95.33;99175.65;1792154;80;22676;-66
2021/03/14 04:29:29;;;;;;;29.80;21.73;;;;;;;2.85;95.31;99169.27;1756240;80;21109;-65
2021/03/14 04:31:57;;;;;;;26.68;20.27;;;;;;;2.91;95.21;99168.42;1711954;82;21172;-67
2021/03/14 04:34:24;;;;;;;28.12;20.02;;;;;;;2.91;94.80;99173.73;1658762;85;21125;-66
2021/03/14 04:36:52;;;;;;;26.80;20.00;;;;;;;2.92;94.52;99171.38;1684234;85;21646;-66
2021/03/14 04:39:19;;;;;;;30.57;20.57;;;;;;;2.91;94.47;99161.78;1684318;85;21397;-66
2021/03/14 04:41:46;;;;;;;31.45;21.80;;;;;;;2.92;94.47;99147.98;1691139;83;21041;-66
2021/03/14 04:44:14;;;;;;;22.77;16.73;;;;;;;2.88;94.44;99148.91;1701183;83;21171;-66
2021/03/14 04:46:42;;;;;;;27.42;21.55;;;;;;;2.82;94.60;99157.75;1712867;83;21171;-67
2021/03/14 04:49:10;;;;;;;30.12;20.70;;;;;;;2.83;94.67;99154.05;1725867;83;21602;-67
2021/03/14 04:51:40;;;;;;;25.65;19.07;;;;;;;2.83;94.72;99157.23;1685618;82;21218;-65
2021/03/14 04:54:10;;;;;;;31.40;22.80;;;;;;;2.82;94.79;99154.28;1709550;82;21144;-66
2021/03/14 04:56:40;;;;;;;27.13;19.92;;;;;;;2.78;94.85;99165.02;1739238;82;21065;-66
2021/03/14 04:59:12;;;;;;;22.60;16.73;;;;;;;2.76;94.93;99171.87;1739198;82;21581;-67
2021/03/14 05:01:42;;;;;;;24.60;19.37;;;;;;;2.84;95.02;99173.45;1735896;82;21111;-67
2021/03/14 05:04:13;;;;;;;25.25;18.52;;;;;;;2.83;94.84;99167.86;1709949;84;21374;-68
2021/03/14 05:06:44;;;;;;;24.00;18.30;;;;;;;2.84;94.73;99168.95;1710596;82;21151;-68
2021/03/14 05:09:15;;;;;;;21.12;16.80;;;;;;;2.90;94.72;99172.09;1736865;82;21037;-66
2021/03/14 05:11:45;;;;;;;27.93;19.30;;;;;;;2.93;94.48;99180.13;1723636;82;21204;-67
2021/03/14 05:14:14;;;;;;;26.05;20.17;;;;;;;2.94;94.33;99174.62;1739330;82;21171;-66
2021/03/14 05:16:43;;;;;;;20.77;15.93;;;;;;;2.95;94.13;99163.48;1738994;82;21205;-66
2021/03/14 05:19:11;;;;;;;24.90;17.15;;;;;;;2.95;94.03;99166.14;1739317;82;21131;-66
2021/03/14 05:21:41;;;;;;;21.73;17.60;;;;;;;2.95;93.97;99170.13;1733031;82;21550;-66
2021/03/14 05:24:11;;;;;;;24.27;17.23;;;;;;;2.93;93.86;99176.16;1711642;82;21124;-67
2021/03/14 05:26:41;;;;;;;23.42;17.10;;;;;;;2.89;93.91;99185.06;1709883;84;21203;-66
2021/03/14 05:29:11;;;;;;;24.37;18.55;;;;;;;2.81;94.04;99180.01;1725364;83;22223;-66
2021/03/14 05:31:39;;;;;;;20.37;16.17;;;;;;;2.85;94.15;99186.52;1736388;82;21597;-66
2021/03/14 05:34:14;;;;;;;19.10;12.58;;;;;;;2.87;94.24;99184.99;1712712;82;21134;-65
2021/03/14 05:36:41;;;;;;;19.27;14.28;;;;;;;2.88;94.21;99186.59;1704600;84;21128;-66
2021/03/14 05:39:09;;;;;;;22.40;14.63;;;;;;;2.87;94.10;99186.31;1706797;84;21767;-67
2021/03/14 05:41:37;;;;;;;22.00;17.37;;;;;;;2.85;94.13;99190.50;1716627;82;21235;-67
2021/03/14 05:44:06;;;;;;;20.92;16.23;;;;;;;2.88;94.08;99187.92;1720585;82;21192;-66
2021/03/14 05:46:33;;;;;;;18.25;14.78;;;;;;;2.88;93.99;99193.23;1734146;81;21111;-66
2021/03/14 05:49:04;;;;;;;18.73;14.85;;;;;;;2.89;93.96;99193.55;1736328;82;21164;-68
2021/03/14 05:51:35;;;;;;;21.05;15.58;;;;;;;2.93;93.97;99192.08;1734945;81;21160;-67
2021/03/14 05:54:03;;;;;;;15.72;12.65;;;;;;;2.97;93.85;99194.10;1733495;82;21172;-65
2021/03/14 05:56:31;;;;;;;17.25;12.95;;;;;;;3.01;93.72;99199.31;1733844;82;21177;-67
2021/03/14 05:58:59;;;;;;;22.48;13.65;;;;;;;2.96;93.39;99192.50;1733915;81;20982;-67
2021/03/14 06:01:29;;;;;;;20.75;12.58;;;;;;;2.89;93.56;99201.51;1728545;82;21116;-66
2021/03/14 06:03:58;;;;;;;18.92;14.85;;;;;;;2.84;93.91;99190.70;1733704;82;21574;-65
2021/03/14 06:06:25;;;;;;;18.40;13.93;;;;;;;2.83;94.08;99203.70;1732219;82;21275;-67
2021/03/14 06:08:55;;;;;;;18.60;14.40;;;;;;;2.85;94.26;99209.61;1707507;82;21136;-66
2021/03/14 06:11:24;;;;;;;19.27;14.85;;;;;;;2.88;94.34;99207.33;1689784;84;21665;-65
2021/03/14 06:13:51;;;;;;;18.48;13.75;;;;;;;2.88;94.34;99214.48;1716719;82;21208;-65
2021/03/14 06:16:19;;;;;;;20.17;14.83;;;;;;;2.93;94.28;99198.22;1720538;82;21160;-67
2021/03/14 06:18:49;;;;;;;17.60;13.38;;;;;;;2.97;94.12;99202.07;1706880;84;21350;-65
2021/03/14 06:21:24;;;;;;;20.72;14.05;;;;;;;2.99;93.95;99193.90;1711157;82;21195;-67
2021/03/14 06:24:07;;;;;;;17.75;12.65;;;;;;;3.04;93.88;99196.73;1704720;84;21581;-65
2021/03/14 06:26:49;;;;;;;19.05;13.35;;;;;;;3.06;93.63;99192.84;1706988;84;21155;-66
2021/03/14 06:29:40;;;;;;;13.48;9.98;;;;;;;3.03;93.46;99174.66;1705690;82;21104;-68
2021/03/14 06:32:07;;;;;;;17.85;12.93;;;;;;;2.99;93.76;99179.30;1595002;89;21346;-66
2021/03/14 06:34:40;;;;;;;18.77;14.65;;;;;;;3.01;93.80;99167.44;1568896;89;21280;-69
2021/03/14 06:37:11;;;;;;;19.10;14.35;;;;;;;3.12;93.80;99169.12;1625612;88;21209;-67
2021/03/14 06:39:47;;;;;;;17.48;14.23;;;;;;;3.15;93.38;99181.45;1624884;88;21168;-65
2021/03/14 06:42:30;;;;;;;19.20;12.53;;;;;;;3.18;93.24;99185.50;1624165;86;21182;-67
2021/03/14 06:45:15;;;;;;;16.90;13.43;;;;;;;3.23;92.97;99184.35;1617697;88;21403;-66
2021/03/14 06:47:49;;;;;;;14.00;12.07;;;;;;;3.27;92.89;99167.76;1615370;88;21135;-65
2021/03/14 06:50:31;;;;;;;15.50;12.37;;;;;;;3.37;92.83;99168.61;1612444;88;21075;-68
2021/03/14 06:53:14;;;;;;;16.97;13.48;;;;;;;3.49;92.50;99170.88;1625358;87;21235;-67
2021/03/14 06:55:42;;;;;;;19.70;14.10;;;;;;;3.55;91.69;99163.34;1641044;86;21261;-65
2021/03/14 06:58:31;;;;;;;16.07;12.33;;;;;;;3.64;91.46;99169.23;1626153;86;21234;-66
2021/03/14 07:03:57;;;;;;;13.93;10.73;;;;;;;3.94;91.02;99177.63;1845094;76;20989;-66
2021/03/14 07:06:26;;;;;;;18.92;13.62;;;;;;;4.00;90.00;99176.45;1816907;78;20999;-65
2021/03/14 07:08:58;;;;;;;14.63;11.80;;;;;;;4.00;89.06;99186.58;1817295;79;21362;-65
2021/03/14 07:11:36;;;;;;;12.78;10.20;;;;;;;4.00;88.87;99189.75;1786092;79;21582;-66
2021/03/14 07:14:05;;;;;;;12.95;11.22;;;;;;;4.08;88.88;99196.11;1817297;79;21031;-65
2021/03/14 07:16:57;;;;;;;14.47;11.83;;;;;;;4.13;88.27;99195.75;1817088;79;21030;-66
2021/03/14 07:19:30;;;;;;;14.00;10.90;;;;;;;4.21;88.04;99201.32;1787126;79;21543;-65
2021/03/14 07:22:09;;;;;;;15.93;11.10;;;;;;;4.30;87.46;99200.81;1785377;80;22271;-64
2021/03/14 07:24:42;;;;;;;18.10;11.65;;;;;;;4.36;87.18;99214.55;1784968;80;21011;-67
2021/03/14 07:27:12;;;;;;;13.08;10.63;;;;;;;4.41;86.48;99201.93;1785221;80;21073;-65
2021/03/14 07:29:40;;;;;;;12.03;9.90;;;;;;;4.47;86.37;99209.52;1784974;80;21141;-65
2021/03/14 07:32:08;;;;;;;12.85;9.90;;;;;;;4.54;86.04;99215.08;1734638;82;21132;-70
2021/03/14 07:34:35;;;;;;;14.68;10.43;;;;;;;4.62;85.35;99219.28;1732200;82;21375;-67
2021/03/14 07:37:03;;;;;;;11.30;9.63;;;;;;;4.63;84.68;99216.41;1785536;79;21153;-66
2021/03/14 07:39:32;;;;;;;12.33;9.50;;;;;;;4.57;84.48;99209.30;1784927;80;20987;-65
2021/03/14 07:42:00;;;;;;;10.80;8.68;;;;;;;4.55;84.70;99211.39;1783687;80;21133;-64
2021/03/14 07:44:27;;;;;;;12.03;10.18;;;;;;;4.62;84.82;99216.11;1808065;79;21614;-68
2021/03/14 07:46:55;;;;;;;10.05;8.68;;;;;;;4.65;84.24;99208.99;1817101;79;21377;-68
2021/03/14 07:49:27;;;;;;;11.20;9.43;;;;;;;4.74;84.35;99210.86;1817023;79;22058;-66
2021/03/14 07:51:59;;;;;;;11.80;9.05;;;;;;;4.76;83.53;99200.77;1817288;79;21043;-67
2021/03/14 07:54:44;;;;;;;9.50;8.53;;;;;;;4.76;83.27;99203.44;1817297;79;20943;-68
2021/03/14 07:57:11;;;;;;;8.98;7.85;;;;;;;4.76;83.17;99198.92;1814721;79;21094;-66
2021/03/14 07:59:42;;;;;;;10.08;8.08;;;;;;;4.80;83.17;99201.95;1817157;79;21606;-66
2021/03/14 08:02:27;;;;;;;11.55;8.48;;;;;;;4.85;83.20;99203.42;1816206;78;21189;-67
2021/03/14 08:04:57;;;;;;;11.28;8.68;;;;;;;4.88;82.87;99210.98;1810741;79;21190;-68
2021/03/14 08:07:39;;;;;;;8.85;7.60;;;;;;;4.91;82.73;99217.70;1780455;80;21149;-67
2021/03/14 08:10:09;;;;;;;9.88;8.50;;;;;;;4.92;82.48;99210.01;1780513;80;21137;-65
2021/03/14 08:12:41;;;;;;;8.18;7.08;;;;;;;4.93;82.54;99212.45;1780596;80;22270;-68
2021/03/14 08:15:26;;;;;;;13.20;8.83;;;;;;;4.97;82.56;99202.16;1779863;80;21171;-67
2021/03/14 08:17:54;;;;;;;9.93;8.33;;;;;;;5.03;82.53;99199.41;1782017;79;21618;-65
2021/03/14 08:20:44;;;;;;;11.57;7.83;;;;;;;5.06;82.16;99193.62;1779882;80;21126;-66
2021/03/14 08:23:18;;;;;;;8.50;7.37;;;;;;;5.07;82.42;99192.58;1779984;80;21150;-66
2021/03/14 08:25:50;;;;;;;8.95;6.97;;;;;;;5.10;82.21;99190.79;1761464;81;22311;-68
2021/03/14 08:28:33;;;;;;;8.55;7.58;;;;;;;5.10;82.04;99193.45;1780117;80;21145;-67
2021/03/14 08:31:10;;;;;;;8.90;7.87;;;;;;;5.14;81.74;99189.29;1887816;76;22651;-69
2021/03/14 08:33:44;;;;;;;8.80;7.78;;;;;;;5.08;81.44;99198.73;1850770;77;21369;-67
2021/03/14 08:36:15;;;;;;;7.47;5.35;;;;;;;5.11;81.14;99195.60;1850076;77;21202;-68
2021/03/14 08:38:54;;;;;;;11.65;9.18;;;;;;;5.11;81.14;99195.60;1781223;80;21075;-69
2021/03/14 08:41:40;;;;;;;9.95;8.50;;;;;;;5.10;81.25;99188.13;1773337;80;21110;-67
2021/03/14 08:44:16;;;;;;;11.22;9.45;;;;;;;5.15;81.68;99180.27;1753668;81;21050;-68
2021/03/14 08:46:59;;;;;;;9.15;7.70;;;;;;;5.17;81.94;99180.05;1761924;81;21221;-66
2021/03/14 08:49:29;;;;;;;10.60;7.95;;;;;;;5.16;81.75;99180.56;1762510;81;21011;-68
2021/03/14 08:51:57;;;;;;;10.48;9.35;;;;;;;5.18;81.86;99184.34;1762371;81;20979;-67
2021/03/14 08:54:32;;;;;;;11.10;9.90;;;;;;;5.26;81.85;99180.01;1728691;81;20993;-67
2021/03/14 08:57:03;;;;;;;10.78;7.87;;;;;;;5.26;81.85;99180.01;1762509;81;21032;-66
2021/03/14 08:59:31;;;;;;;10.08;8.35;;;;;;;5.27;81.28;99197.64;1756737;81;21153;-68
2021/03/14 09:02:00;;;;;;;10.48;8.33;;;;;;;5.26;81.16;99200.00;1752003;81;21570;-65
2021/03/14 09:04:33;;;;;;;10.98;9.33;;;;;;;5.28;81.23;99200.57;1761362;81;21319;-68
2021/03/14 09:07:15;;;;;;;12.20;9.80;;;;;;;5.35;81.37;99206.63;1759094;81;21240;-65
2021/03/14 09:09:46;;;;;;;10.90;8.05;;;;;;;5.46;80.29;99202.38;1758326;81;21164;-66
2021/03/14 09:12:33;;;;;;;10.68;9.10;;;;;;;5.46;80.29;99202.38;1722800;81;21203;-67
2021/03/14 09:15:15;;;;;;;11.35;7.87;;;;;;;5.57;79.94;99206.39;1757402;81;21221;-66
2021/03/14 09:17:59;;;;;;;8.43;7.33;;;;;;;5.63;79.57;99204.66;1833884;76;22725;-68
2021/03/14 09:20:31;;;;;;;9.95;8.65;;;;;;;5.50;79.47;99207.55;1804527;79;21071;-67
2021/03/14 09:23:06;;;;;;;10.48;8.83;;;;;;;5.49;79.60;99213.91;1800688;79;21308;-67
2021/03/14 09:25:38;;;;;;;9.70;8.70;;;;;;;5.53;79.96;99207.89;1801844;79;21157;-68
2021/03/14 09:28:06;;;;;;;9.95;8.90;;;;;;;5.58;79.35;99205.35;1796546;79;21615;-67
2021/03/14 09:30:38;;;;;;;11.30;8.23;;;;;;;5.63;79.44;99203.33;1740999;82;21069;-65
2021/03/14 09:33:07;;;;;;;10.40;8.45;;;;;;;5.68;79.32;99207.45;1743791;81;21242;-67
2021/03/14 09:35:42;;;;;;;10.63;8.38;;;;;;;5.75;79.37;99198.84;1795600;79;22299;-66
2021/03/14 09:38:20;;;;;;;9.78;8.83;;;;;;;5.84;79.01;99195.30;1733906;82;21077;-67
2021/03/14 09:40:51;;;;;;;10.08;7.85;;;;;;;5.93;78.43;99203.28;1716369;82;21092;-68
2021/03/14 09:43:28;;;;;;;9.98;8.35;;;;;;;5.92;77.95;99209.14;1784853;80;21137;-66
2021/03/14 09:46:13;;;;;;;9.80;8.10;;;;;;;5.98;78.04;99192.20;1784816;80;21595;-68
2021/03/14 09:48:53;;;;;;;9.90;8.30;;;;;;;6.10;77.61;99176.98;1889125;76;23689;-71
2021/03/14 09:51:22;;;;;;;9.63;8.48;;;;;;;6.07;77.60;99178.80;1758769;81;21055;-66
2021/03/14 09:53:50;;;;;;;9.75;7.85;;;;;;;6.06;78.03;99170.49;1789945;80;21199;-68
2021/03/14 09:56:22;;;;;;;10.10;8.08;;;;;;;6.06;78.10;99171.83;1789333;80;21011;-68
2021/03/14 09:59:08;;;;;;;9.68;8.50;;;;;;;6.03;78.26;99171.48;1792183;78;21000;-66
2021/03/14 10:01:37;;;;;;;13.98;11.70;;;;;;;6.09;78.20;99170.56;1735018;80;21014;-67
2021/03/14 10:04:06;;;;;;;13.28;10.45;;;;;;;6.17;78.03;99164.86;1789911;80;21125;-67
2021/03/14 10:06:38;;;;;;;13.05;11.65;;;;;;;6.20;77.79;99153.70;1789530;80;22101;-69
2021/03/14 10:09:08;;;;;;;11.63;9.40;;;;;;;6.25;77.41;99160.48;1789726;80;21050;-68
2021/03/14 10:11:36;;;;;;;13.40;10.95;;;;;;;6.26;76.96;99155.44;1759730;80;21906;-66
2021/03/14 10:14:05;;;;;;;12.33;9.73;;;;;;;6.25;76.91;99143.12;1791887;78;21113;-68
2021/03/14 10:16:34;;;;;;;12.07;10.15;;;;;;;6.33;76.82;99157.99;1778621;80;21165;-67
2021/03/14 10:19:05;;;;;;;14.63;11.08;;;;;;;6.43;76.93;99142.97;1782888;80;22162;-67
2021/03/14 10:21:45;;;;;;;14.33;10.65;;;;;;;6.50;76.89;99133.49;1780330;80;21146;-68
2021/03/14 10:24:23;;;;;;;10.55;9.00;;;;;;;6.56;76.56;99141.91;1775993;80;21161;-67
2021/03/14 10:27:00;;;;;;;15.95;12.33;;;;;;;6.57;75.90;99142.16;1771539;80;21162;-68
2021/03/14 10:29:34;;;;;;;13.72;9.95;;;;;;;6.55;75.75;99126.91;1788004;80;21192;-67
2021/03/14 10:32:06;;;;;;;12.10;9.55;;;;;;;6.58;75.24;99129.10;1771384;80;21588;-68
2021/03/14 10:34:36;;;;;;;14.25;11.43;;;;;;;6.55;74.88;99129.59;1774440;79;21124;-66
2021/03/14 10:37:03;;;;;;;15.48;10.45;;;;;;;6.61;74.96;99146.53;1802282;79;21027;-68
2021/03/14 10:39:32;;;;;;;13.53;11.25;;;;;;;6.66;73.70;99127.93;1794832;79;21143;-68
2021/03/14 10:42:01;;;;;;;15.30;11.33;;;;;;;6.62;73.56;99130.25;1768579;81;21551;-68
2021/03/14 10:44:31;;;;;;;17.45;12.13;;;;;;;6.61;73.72;99130.50;1768131;81;21485;-69
2021/03/14 10:47:16;;;;;;;14.43;11.10;;;;;;;6.62;73.49;99124.12;1767312;80;21599;-69
2021/03/14 10:49:50;;;;;;;15.75;11.50;;;;;;;6.64;73.56;99126.82;1785193;80;21192;-67
2021/03/14 10:52:19;;;;;;;11.93;10.03;;;;;;;6.62;73.59;99124.12;1755959;81;21142;-68
2021/03/14 10:54:48;;;;;;;15.55;11.75;;;;;;;6.61;74.03;99125.16;1767569;80;21225;-67
2021/03/14 10:57:18;;;;;;;18.95;13.03;;;;;;;6.62;74.40;99119.56;1778805;79;21223;-68
2021/03/14 10:59:47;;;;;;;18.12;12.90;;;;;;;6.65;74.80;99118.28;1762270;79;21156;-66
2021/03/14 11:02:25;;;;;;;19.60;14.95;;;;;;;6.61;75.45;99115.81;1795775;79;21164;-67
2021/03/14 11:04:57;;;;;;;20.77;13.48;;;;;;;6.52;76.23;99118.84;1756677;80;21164;-67
2021/03/14 11:07:34;;;;;;;21.52;14.85;;;;;;;6.48;76.67;99109.68;1763820;80;21176;-66
2021/03/14 11:10:24;;;;;;;23.70;16.90;;;;;;;6.50;77.11;99109.45;1827972;76;28364;-69
2021/03/14 11:12:54;;;;;;;16.82;13.45;;;;;;;6.50;77.20;99107.59;1730455;79;21033;-66
2021/03/14 11:15:33;;;;;;;20.92;14.35;;;;;;;6.50;77.14;99100.91;1847075;76;26769;-68
2021/03/14 11:18:04;;;;;;;24.90;16.10;;;;;;;6.45;77.24;99098.66;1814887;79;21053;-67
2021/03/14 11:20:41;;;;;;;23.07;15.03;;;;;;;6.48;77.38;99098.18;1815394;79;21634;-70
2021/03/14 11:23:10;;;;;;;19.00;13.72;;;;;;;6.51;77.41;99095.87;1814980;79;21024;-70
2021/03/14 11:25:38;;;;;;;21.27;13.48;;;;;;;6.39;77.14;99096.42;1755183;80;21015;-67
2021/03/14 11:28:09;;;;;;;21.75;13.55;;;;;;;6.31;77.41;99114.16;1785555;79;21043;-66
2021/03/14 11:30:36;;;;;;;26.23;17.23;;;;;;;6.21;77.73;99097.11;1795014;79;21034;-67
2021/03/14 11:33:05;;;;;;;21.30;15.53;;;;;;;6.09;78.10;99105.16;1790247;79;21375;-67
2021/03/14 11:35:38;;;;;;;26.25;18.52;;;;;;;6.01;78.67;99106.83;1815697;79;21587;-66
2021/03/14 11:38:21;;;;;;;20.40;12.98;;;;;;;5.90;79.32;99087.12;1792234;79;21062;-67
2021/03/14 11:41:03;;;;;;;26.23;17.20;;;;;;;5.87;79.61;99087.59;1884070;76;25103;-69
2021/03/14 11:43:39;;;;;;;21.35;14.75;;;;;;;5.76;80.15;99094.23;1782748;80;21577;-67
2021/03/14 11:46:08;;;;;;;23.85;16.67;;;;;;;5.75;80.61;99089.97;1787370;80;21502;-68
2021/03/14 11:48:37;;;;;;;31.00;18.42;;;;;;;5.73;80.54;99090.70;1775689;80;21179;-68
2021/03/14 11:51:16;;;;;;;25.30;18.02;;;;;;;5.76;80.36;99079.04;1784876;80;20987;-68